logo
Rechercher aéroport 
image banner adimage banner adimage banner ad
image banner ad

YLDB - Lady Barron (Flinders Is) Airport

Situé à Lady Barron, Australia

ICAO - YLDB, IATA -

Données fournies par Airmate  

Information générale

Coordonnées: S40°11'45" E148°14'41"
Élévation : 48 feet MSL.
Variation magnétique : 14° East
Voir autres Aéroports à Tasmania

Données opérationnelles

Special qualification required
Heure actuelle UTC:
Heure actuelle locale:
Météo à : - ( 0 km )
METAR: ZMUB 180000Z VRB02MPS 9999 SCT033 SCT100 08/M04 Q1020 NOSIG RMK QFE657.3 42 MOP
Voir NOTAMs / SUP AIP / TFR affectant cet aéroport [VIEW]
Fréquences de communication: [VIEW]

Pistes:

Identifiant RWYQFULongueur (ft)Largeur (ft)SurfaceLDA (ft)
0788°431644DIRT
25268°431644DIRT

Coordonnées de l'aéroport

Adresse: Lady Barron Australia

Vue satellite de YLDB